Time;durP1;ratioP1;P1;durP2;ratioP2;P2;SDS_P1;SDS_P2;PMS_P1;PMS_P2;Temp;Humidity;BMP_temperature;BMP_pressure;BME280_temperature;BME280_humidity;BME280_pressure;Samples;Min_cycle;Max_cycle;Signal;HPM_P1;HPM_P2
2022/03/09 00:02:04;;;;;;;;;;;;;;;10.26;28.02;99633.91;4489339;31;34831;-80
2022/03/09 00:04:31;;;;;;;;;;;;;;;10.30;27.91;99634.84;4498033;31;34417;-79
2022/03/09 00:06:59;;;;;;;;;;;;;;;10.17;28.30;99631.97;4496156;31;35359;-80
2022/03/09 00:09:26;;;;;;;;;;;;;;;10.08;28.30;99629.19;4493343;31;34353;-79
2022/03/09 00:11:53;;;;;;;;;;;;;;;10.13;28.40;99627.56;4493623;31;34000;-79
2022/03/09 00:14:22;;;;;;;;;;;;;;;10.01;28.51;99629.91;4497023;31;33715;-80
2022/03/09 00:16:50;;;;;;;;;;;;;;;9.98;28.53;99638.47;4498181;31;34153;-79
2022/03/09 00:19:18;;;;;;;;;;;;;;;9.87;28.71;99641.66;4497993;31;33670;-80
2022/03/09 00:21:47;;;;;;;;;;;;;;;9.90;28.62;99645.19;4496338;31;33982;-81
2022/03/09 00:24:16;;;;;;;;;;;;;;;9.84;28.73;99644.16;4498150;31;34526;-80
2022/03/09 00:26:44;;;;;;;;;;;;;;;10.02;28.39;99644.59;4490305;31;33871;-80
2022/03/09 00:29:11;;;;;;;;;;;;;;;10.00;28.40;99641.09;4497969;31;33049;-81
2022/03/09 00:31:38;;;;;;;;;;;;;;;9.70;28.92;99639.56;4497296;31;33856;-81
2022/03/09 00:34:06;;;;;;;;;;;;;;;9.86;28.74;99642.50;4498228;31;33979;-80
2022/03/09 00:36:33;;;;;;;;;;;;;;;9.53;29.15;99637.38;4497419;31;34095;-81
2022/03/09 00:39:00;;;;;;;;;;;;;;;9.42;29.57;99642.28;4497938;31;33238;-80
2022/03/09 00:41:28;;;;;;;;;;;;;;;9.64;29.27;99643.69;4498167;31;34701;-80
2022/03/09 00:43:55;;;;;;;;;;;;;;;9.66;29.24;99645.50;4497883;31;34001;-80
2022/03/09 00:46:24;;;;;;;;;;;;;;;9.72;29.27;99635.28;4490034;31;34288;-80
2022/03/09 00:48:52;;;;;;;;;;;;;;;9.71;29.26;99638.72;4497264;31;33670;-79
2022/03/09 00:51:19;;;;;;;;;;;;;;;9.69;29.53;99631.72;4496919;31;34384;-80
2022/03/09 00:53:47;;;;;;;;;;;;;;;9.77;29.65;99632.78;4498014;31;34199;-80
2022/03/09 00:56:14;;;;;;;;;;;;;;;9.71;29.99;99627.47;4496927;31;33999;-80
2022/03/09 00:58:41;;;;;;;;;;;;;;;9.23;30.34;99617.66;4497275;31;33584;-81
2022/03/09 01:01:09;;;;;;;;;;;;;;;9.41;30.31;99623.31;4497418;31;33968;-80
2022/03/09 01:03:40;;;;;;;;;;;;;;;9.63;30.31;99627.28;4491679;31;34473;-80
2022/03/09 01:06:07;;;;;;;;;;;;;;;9.66;30.19;99618.72;4497355;31;34994;-81
2022/03/09 01:08:36;;;;;;;;;;;;;;;9.83;29.83;99613.94;4497252;31;33670;-80
2022/03/09 01:11:03;;;;;;;;;;;;;;;9.71;30.05;99612.81;4496724;31;35006;-80
2022/03/09 01:13:30;;;;;;;;;;;;;;;9.91;29.67;99614.97;4494229;31;34504;-81
2022/03/09 01:15:57;;;;;;;;;;;;;;;9.93;29.83;99609.00;4495973;31;35273;-81
2022/03/09 01:18:25;;;;;;;;;;;;;;;10.19;29.24;99598.31;4499094;31;33816;-80
2022/03/09 01:20:52;;;;;;;;;;;;;;;10.14;29.38;99607.72;4499484;31;35043;-81
2022/03/09 01:23:20;;;;;;;;;;;;;;;10.25;29.05;99598.50;4495935;31;34356;-80
2022/03/09 01:25:47;;;;;;;;;;;;;;;10.34;28.78;99597.78;4492641;31;34333;-80
2022/03/09 01:28:14;;;;;;;;;;;;;;;10.17;29.14;99592.25;4498646;31;33784;-80
2022/03/09 01:30:41;;;;;;;;;;;;;;;10.30;29.10;99601.16;4497405;31;34303;-81
2022/03/09 01:33:09;;;;;;;;;;;;;;;10.05;29.43;99602.34;4499414;31;34216;-81
2022/03/09 01:35:36;;;;;;;;;;;;;;;10.27;28.98;99595.94;4499779;31;34788;-80
2022/03/09 01:38:03;;;;;;;;;;;;;;;9.50;30.02;99596.75;4499929;31;33162;-80
2022/03/09 01:40:31;;;;;;;;;;;;;;;9.72;29.91;99592.97;4499311;31;33806;-80
2022/03/09 01:42:58;;;;;;;;;;;;;;;9.80;29.63;99604.37;4496210;31;34965;-80
2022/03/09 01:45:25;;;;;;;;;;;;;;;9.87;29.27;99606.28;4499497;31;34768;-78
2022/03/09 01:47:53;;;;;;;;;;;;;;;9.81;29.32;99616.50;4498994;31;33431;-80
2022/03/09 01:50:20;;;;;;;;;;;;;;;9.74;29.28;99623.25;4498837;31;34123;-80
2022/03/09 01:52:47;;;;;;;;;;;;;;;9.52;29.72;99628.75;4496980;31;34556;-80
2022/03/09 01:55:15;;;;;;;;;;;;;;;9.69;29.51;99632.59;4499077;31;34406;-80
2022/03/09 01:57:42;;;;;;;;;;;;;;;9.61;29.59;99625.50;4497842;31;33741;-79
2022/03/09 02:00:10;;;;;;;;;;;;;;;9.55;29.79;99631.41;4499497;31;35070;-80
2022/03/09 02:02:37;;;;;;;;;;;;;;;9.73;29.74;99631.84;4498071;31;34425;-81
2022/03/09 02:05:06;;;;;;;;;;;;;;;9.84;29.47;99631.22;4493316;31;34650;-80
2022/03/09 02:10:20;;;;;;;;;;;;;;;9.71;29.42;99625.75;4483516;31;34008;-79
2022/03/09 02:12:48;;;;;;;;;;;;;;;9.89;29.34;99624.44;4498820;31;34317;-80
2022/03/09 02:15:15;;;;;;;;;;;;;;;9.96;29.16;99634.06;4494745;31;34064;-80
2022/03/09 02:17:42;;;;;;;;;;;;;;;9.86;29.48;99630.41;4499230;31;32918;-80
2022/03/09 02:20:09;;;;;;;;;;;;;;;9.52;30.14;99631.34;4499287;31;33730;-80
2022/03/09 02:22:38;;;;;;;;;;;;;;;9.63;30.30;99624.72;4499020;31;34189;-81
2022/03/09 02:25:07;;;;;;;;;;;;;;;9.29;30.59;99620.44;4490005;31;34540;-80
2022/03/09 02:27:34;;;;;;;;;;;;;;;9.52;30.27;99621.00;4498525;31;33699;-81
2022/03/09 02:30:05;;;;;;;;;;;;;;;9.69;30.07;99624.84;4498553;31;34239;-80
2022/03/09 02:32:32;;;;;;;;;;;;;;;10.01;29.87;99622.13;4499100;31;34287;-80
2022/03/09 02:35:01;;;;;;;;;;;;;;;10.11;29.36;99630.97;4499108;31;34110;-80
2022/03/09 02:37:28;;;;;;;;;;;;;;;9.89;29.31;99622.72;4498239;31;33327;-80
2022/03/09 02:39:55;;;;;;;;;;;;;;;9.92;29.37;99625.38;4499221;31;34308;-81
2022/03/09 02:42:22;;;;;;;;;;;;;;;10.16;29.01;99629.38;4498764;31;34243;-80
2022/03/09 02:44:50;;;;;;;;;;;;;;;9.95;29.51;99630.63;4498831;31;34186;-80
2022/03/09 02:47:17;;;;;;;;;;;;;;;9.87;29.67;99626.13;4497823;31;34095;-79
2022/03/09 02:49:44;;;;;;;;;;;;;;;9.95;29.32;99625.44;4498668;31;35074;-80
2022/03/09 02:52:12;;;;;;;;;;;;;;;10.14;29.47;99629.31;4499081;31;34948;-80
2022/03/09 02:54:39;;;;;;;;;;;;;;;9.91;29.71;99633.13;4498915;31;34278;-79
2022/03/09 02:57:07;;;;;;;;;;;;;;;10.10;29.55;99640.44;4498428;31;33508;-80
2022/03/09 02:59:35;;;;;;;;;;;;;;;10.20;29.42;99651.91;4499022;31;33969;-80
2022/03/09 03:02:02;;;;;;;;;;;;;;;10.32;28.96;99638.38;4498885;31;34053;-80
2022/03/09 03:04:30;;;;;;;;;;;;;;;10.33;28.97;99645.28;4498275;31;34144;-80
2022/03/09 03:06:57;;;;;;;;;;;;;;;10.42;29.19;99629.94;4498041;31;33723;-80
2022/03/09 03:09:25;;;;;;;;;;;;;;;10.17;29.29;99631.09;4498761;31;34463;-80
2022/03/09 03:11:52;;;;;;;;;;;;;;;10.20;28.96;99623.41;4498060;31;35367;-81
2022/03/09 03:14:19;;;;;;;;;;;;;;;9.97;29.64;99620.31;4498950;31;35067;-80
2022/03/09 03:16:46;;;;;;;;;;;;;;;10.32;29.46;99613.31;4498724;31;33610;-80
2022/03/09 03:19:13;;;;;;;;;;;;;;;10.28;29.73;99605.47;4498841;31;34271;-80
2022/03/09 03:21:40;;;;;;;;;;;;;;;10.43;29.47;99604.06;4498641;31;35360;-80
2022/03/09 03:24:08;;;;;;;;;;;;;;;10.04;29.76;99606.66;4498408;31;34891;-80
2022/03/09 03:26:35;;;;;;;;;;;;;;;10.22;29.41;99601.84;4498550;31;34404;-79
2022/03/09 03:29:02;;;;;;;;;;;;;;;10.28;29.44;99611.50;4497987;31;33671;-81
2022/03/09 03:31:30;;;;;;;;;;;;;;;10.35;29.35;99607.34;4498585;31;35232;-80
2022/03/09 03:33:57;;;;;;;;;;;;;;;10.23;29.55;99613.97;4498190;31;34076;-80
2022/03/09 03:36:24;;;;;;;;;;;;;;;10.37;29.25;99606.50;4495820;31;33408;-80
2022/03/09 03:39:09;;;;;;;;;;;;;;;10.35;29.15;99602.16;4498936;31;34309;-80
2022/03/09 03:41:37;;;;;;;;;;;;;;;10.26;29.18;99607.13;4496527;31;34266;-80
2022/03/09 03:44:04;;;;;;;;;;;;;;;10.31;29.25;99610.72;4498285;31;35185;-80
2022/03/09 03:46:32;;;;;;;;;;;;;;;10.45;29.29;99619.63;4498400;31;33679;-79
2022/03/09 03:48:59;;;;;;;;;;;;;;;10.41;29.20;99610.91;4497661;31;33707;-78
2022/03/09 03:51:27;;;;;;;;;;;;;;;10.19;29.41;99619.94;4498361;31;35107;-80
2022/03/09 03:53:56;;;;;;;;;;;;;;;10.36;29.56;99611.66;4493632;31;35013;-80
2022/03/09 03:56:23;;;;;;;;;;;;;;;10.36;29.72;99617.72;4484257;31;34525;-79
2022/03/09 03:58:51;;;;;;;;;;;;;;;10.60;29.19;99619.06;4498002;31;35268;-80
2022/03/09 04:01:18;;;;;;;;;;;;;;;10.39;29.60;99619.50;4498503;31;34055;-81
2022/03/09 04:03:46;;;;;;;;;;;;;;;10.52;29.13;99621.50;4490061;31;33957;-80
2022/03/09 04:06:13;;;;;;;;;;;;;;;10.40;29.37;99618.66;4497949;31;33679;-79
2022/03/09 04:08:40;;;;;;;;;;;;;;;10.26;30.09;99622.69;4485341;31;35666;-80
2022/03/09 04:11:07;;;;;;;;;;;;;;;10.60;29.45;99619.94;4498340;31;34151;-80
2022/03/09 04:13:37;;;;;;;;;;;;;;;10.68;29.24;99613.19;4493300;31;33376;-80
2022/03/09 04:16:04;;;;;;;;;;;;;;;10.70;29.31;99597.66;4498556;31;34572;-80
2022/03/09 04:18:32;;;;;;;;;;;;;;;10.59;29.15;99607.81;4497913;31;34249;-79
2022/03/09 04:20:59;;;;;;;;;;;;;;;10.76;29.43;99597.78;4497631;31;34380;-80
2022/03/09 04:23:27;;;;;;;;;;;;;;;10.66;29.68;99606.22;4488870;31;35258;-80
2022/03/09 04:25:54;;;;;;;;;;;;;;;10.46;29.73;99588.56;4498172;31;33117;-80
2022/03/09 04:28:21;;;;;;;;;;;;;;;10.55;29.84;99593.06;4497666;31;34153;-80
2022/03/09 04:30:49;;;;;;;;;;;;;;;10.78;29.17;99592.62;4498115;31;34283;-80
2022/03/09 04:33:17;;;;;;;;;;;;;;;10.85;29.25;99602.25;4497467;31;34250;-80
2022/03/09 04:35:44;;;;;;;;;;;;;;;10.56;29.11;99599.97;4497817;31;33239;-80
2022/03/09 04:38:11;;;;;;;;;;;;;;;10.89;28.88;99601.47;4497666;31;33843;-80
2022/03/09 04:40:38;;;;;;;;;;;;;;;10.82;28.94;99604.78;4497759;31;33959;-80
2022/03/09 04:43:06;;;;;;;;;;;;;;;10.33;29.52;99609.88;4497156;31;34960;-80
2022/03/09 04:45:34;;;;;;;;;;;;;;;10.42;29.35;99619.59;4496948;31;33775;-80
2022/03/09 04:48:01;;;;;;;;;;;;;;;10.58;29.11;99618.19;4497465;31;34378;-80
2022/03/09 04:50:29;;;;;;;;;;;;;;;10.49;29.24;99611.06;4497102;31;35323;-83
2022/03/09 04:52:56;;;;;;;;;;;;;;;10.62;29.05;99607.00;4499002;31;34432;-79
2022/03/09 04:55:23;;;;;;;;;;;;;;;10.35;29.37;99608.22;4499894;31;33422;-80
2022/03/09 04:57:50;;;;;;;;;;;;;;;9.48;29.66;99614.00;4499278;31;34357;-80
2022/03/09 05:00:19;;;;;;;;;;;;;;;10.00;29.83;99625.56;4500002;31;34844;-79
2022/03/09 05:02:46;;;;;;;;;;;;;;;9.95;29.89;99628.03;4499518;31;34334;-80
2022/03/09 05:05:14;;;;;;;;;;;;;;;9.88;29.93;99626.13;4499222;31;33541;-79
2022/03/09 05:07:41;;;;;;;;;;;;;;;9.36;29.86;99619.75;4499359;31;35149;-80
2022/03/09 05:10:09;;;;;;;;;;;;;;;9.77;28.63;99612.06;4499492;31;34489;-80
2022/03/09 05:12:36;;;;;;;;;;;;;;;9.92;28.37;99590.81;4499558;31;35256;-79
2022/03/09 05:15:04;;;;;;;;;;;;;;;9.43;28.74;99600.94;4499424;31;33956;-80
2022/03/09 05:17:38;;;;;;;;;;;;;;;9.65;29.73;99602.31;4496350;31;34053;-81
2022/03/09 05:20:06;;;;;;;;;;;;;;;9.91;29.67;99604.63;4495188;31;35100;-81
2022/03/09 05:22:35;;;;;;;;;;;;;;;10.26;29.28;99601.94;4497422;31;34665;-82
2022/03/09 05:25:02;;;;;;;;;;;;;;;10.43;29.28;99605.78;4499485;31;33600;-82
2022/03/09 05:27:30;;;;;;;;;;;;;;;10.49;29.07;99611.06;4494746;31;35270;-83
2022/03/09 05:29:57;;;;;;;;;;;;;;;10.64;29.21;99613.97;4498728;31;35320;-80
2022/03/09 05:32:24;;;;;;;;;;;;;;;10.14;29.33;99618.06;4497786;31;34998;-81
2022/03/09 05:34:52;;;;;;;;;;;;;;;10.33;28.33;99611.59;4499077;31;33788;-81
2022/03/09 05:37:23;;;;;;;;;;;;;;;9.66;28.52;99624.78;4498026;31;33957;-81
2022/03/09 05:39:50;;;;;;;;;;;;;;;9.48;29.25;99614.00;4498251;31;34775;-81
2022/03/09 05:42:17;;;;;;;;;;;;;;;9.39;29.73;99624.97;4498808;31;34391;-79
2022/03/09 05:44:44;;;;;;;;;;;;;;;10.12;28.57;99620.66;4499562;31;34540;-79
2022/03/09 05:47:32;;;;;;;;;;;;;;;9.91;28.55;99625.34;4494006;31;35050;-81
2022/03/09 05:50:00;;;;;;;;;;;;;;;9.80;29.94;99613.88;4498646;31;34427;-79
2022/03/09 05:52:28;;;;;;;;;;;;;;;9.11;29.42;99614.78;4498908;31;35401;-80
2022/03/09 05:54:55;;;;;;;;;;;;;;;9.26;29.22;99628.97;4499213;31;33507;-80
2022/03/09 05:57:23;;;;;;;;;;;;;;;8.38;30.45;99644.66;4491269;31;34864;-81
2022/03/09 05:59:50;;;;;;;;;;;;;;;8.80;29.59;99654.47;4498918;31;34207;-80
2022/03/09 06:02:17;;;;;;;;;;;;;;;8.27;30.88;99660.69;4499589;31;34603;-79
2022/03/09 06:04:47;;;;;;;;;;;;;;;7.86;31.14;99674.03;4496389;31;33780;-78
2022/03/09 06:07:15;;;;;;;;;;;;;;;7.36;32.52;99666.41;4499269;31;34757;-80
2022/03/09 06:09:42;;;;;;;;;;;;;;;7.01;32.90;99680.69;4498858;31;33915;-80
2022/03/09 06:12:09;;;;;;;;;;;;;;;7.82;31.46;99685.97;4498276;31;35295;-79
2022/03/09 06:14:36;;;;;;;;;;;;;;;7.39;32.69;99686.28;4498776;31;34331;-80
2022/03/09 06:17:03;;;;;;;;;;;;;;;8.18;31.08;99691.41;4499377;31;33538;-80
2022/03/09 06:19:31;;;;;;;;;;;;;;;8.32;30.77;99685.78;4499234;31;34088;-80
2022/03/09 06:21:58;;;;;;;;;;;;;;;6.27;34.21;99701.16;4498244;31;35056;-80
2022/03/09 06:24:25;;;;;;;;;;;;;;;7.50;32.78;99685.81;4499267;31;34355;-80
2022/03/09 06:26:53;;;;;;;;;;;;;;;7.08;33.52;99692.94;4499248;31;34799;-80
2022/03/09 06:29:21;;;;;;;;;;;;;;;7.53;32.78;99692.75;4499433;31;33885;-80
2022/03/09 06:31:48;;;;;;;;;;;;;;;7.53;33.15;99685.00;4499646;31;34196;-80
2022/03/09 06:34:17;;;;;;;;;;;;;;;7.37;32.89;99698.22;4499760;31;34368;-80
2022/03/09 06:36:44;;;;;;;;;;;;;;;8.00;32.15;99689.13;4499599;31;34439;-80
2022/03/09 06:39:15;;;;;;;;;;;;;;;8.09;31.76;99688.53;4499322;31;34436;-80
2022/03/09 06:41:44;;;;;;;;;;;;;;;7.46;33.15;99685.62;4499180;31;34260;-81
2022/03/09 06:44:12;;;;;;;;;;;;;;;7.25;33.85;99690.97;4497903;31;34651;-80
2022/03/09 06:46:40;;;;;;;;;;;;;;;7.01;34.00;99702.19;4499284;31;34717;-80
2022/03/09 06:49:07;;;;;;;;;;;;;;;7.71;33.40;99695.94;4499225;31;34537;-80
2022/03/09 06:51:34;;;;;;;;;;;;;;;7.19;33.69;99695.87;4499327;31;34290;-80
2022/03/09 06:54:02;;;;;;;;;;;;;;;7.53;33.49;99692.75;4499390;31;33746;-80
2022/03/09 06:56:29;;;;;;;;;;;;;;;8.13;32.41;99694.66;4499089;31;34887;-81
2022/03/09 06:58:56;;;;;;;;;;;;;;;7.69;32.89;99695.03;4499011;31;35171;-80
2022/03/09 07:01:23;;;;;;;;;;;;;;;7.54;33.63;99697.09;4499289;31;35144;-80
2022/03/09 07:03:51;;;;;;;;;;;;;;;8.01;32.75;99705.50;4499367;31;33652;-81
2022/03/09 07:06:18;;;;;;;;;;;;;;;7.48;33.23;99694.31;4499310;31;35082;-80
2022/03/09 07:08:45;;;;;;;;;;;;;;;7.76;32.56;99708.97;4499485;31;34083;-81
2022/03/09 07:11:13;;;;;;;;;;;;;;;6.99;35.16;99697.78;4498866;31;34336;-80
2022/03/09 07:13:41;;;;;;;;;;;;;;;6.54;35.64;99710.75;4499145;31;33706;-80
2022/03/09 07:16:08;;;;;;;;;;;;;;;8.16;33.02;99703.41;4499014;31;34686;-80
2022/03/09 07:18:37;;;;;;;;;;;;;;;7.64;33.80;99706.88;4497780;31;34281;-80
2022/03/09 07:21:04;;;;;;;;;;;;;;;7.73;34.04;99717.53;4499456;31;34351;-80
2022/03/09 07:23:31;;;;;;;;;;;;;;;7.84;33.46;99709.22;4498126;31;33459;-80
2022/03/09 07:25:59;;;;;;;;;;;;;;;7.47;34.32;99726.09;4499009;31;34049;-80
2022/03/09 07:28:27;;;;;;;;;;;;;;;8.19;32.67;99726.75;4498883;31;34382;-81
2022/03/09 07:30:56;;;;;;;;;;;;;;;7.19;34.47;99738.03;4499194;31;35169;-80
2022/03/09 07:33:23;;;;;;;;;;;;;;;8.08;33.04;99738.44;4499036;31;34373;-80
2022/03/09 07:35:51;;;;;;;;;;;;;;;6.98;35.45;99752.75;4499164;31;34480;-80
2022/03/09 07:38:18;;;;;;;;;;;;;;;8.17;32.78;99727.50;4497803;31;33837;-80
2022/03/09 07:40:45;;;;;;;;;;;;;;;7.42;34.72;99731.06;4498982;31;34785;-81
2022/03/09 07:43:12;;;;;;;;;;;;;;;7.86;34.27;99718.78;4499230;31;33978;-80
2022/03/09 07:45:45;;;;;;;;;;;;;;;6.93;35.74;99713.00;4498857;31;34270;-80
2022/03/09 07:48:12;;;;;;;;;;;;;;;6.52;36.55;99689.22;4498955;31;34232;-80
2022/03/09 07:50:40;;;;;;;;;;;;;;;7.18;35.76;99683.81;4498819;31;34444;-80
2022/03/09 07:53:07;;;;;;;;;;;;;;;8.26;33.74;99684.78;4498763;31;33530;-80
2022/03/09 07:55:35;;;;;;;;;;;;;;;7.67;34.61;99685.47;4498911;31;33968;-80
2022/03/09 07:58:03;;;;;;;;;;;;;;;6.71;36.09;99701.06;4498634;31;34346;-80
2022/03/09 08:00:30;;;;;;;;;;;;;;;7.18;35.42;99700.16;4498667;31;35193;-80
2022/03/09 08:02:57;;;;;;;;;;;;;;;7.57;35.05;99698.06;4498744;31;33441;-80
2022/03/09 08:05:45;;;;;;;;;;;;;;;7.74;34.74;99693.47;4498515;31;34003;-80
2022/03/09 08:08:12;;;;;;;;;;;;;;;7.43;35.87;99696.75;4498626;31;34490;-81
2022/03/09 08:10:39;;;;;;;;;;;;;;;7.85;34.74;99690.38;4498496;31;34590;-80
2022/03/09 08:13:07;;;;;;;;;;;;;;;7.51;35.15;99690.13;4498367;31;33471;-80
2022/03/09 08:15:37;;;;;;;;;;;;;;;7.70;35.11;99696.78;4498466;31;34821;-80
2022/03/09 08:18:04;;;;;;;;;;;;;;;8.17;34.17;99696.50;4498488;31;34200;-80
2022/03/09 08:20:31;;;;;;;;;;;;;;;7.37;35.98;99701.69;4498182;31;34161;-80
2022/03/09 08:22:58;;;;;;;;;;;;;;;7.85;35.21;99700.69;4498448;31;33464;-82
2022/03/09 08:25:25;;;;;;;;;;;;;;;7.80;35.73;99693.66;4498613;31;34238;-80
2022/03/09 08:27:53;;;;;;;;;;;;;;;6.92;37.15;99686.38;4499025;31;35270;-80
2022/03/09 08:30:20;;;;;;;;;;;;;;;6.90;37.95;99692.31;4500217;31;34572;-81
2022/03/09 08:32:47;;;;;;;;;;;;;;;8.13;35.19;99677.47;4500435;31;34478;-80
2022/03/09 08:35:14;;;;;;;;;;;;;;;7.94;35.06;99667.41;4500144;31;34247;-80
2022/03/09 08:37:43;;;;;;;;;;;;;;;8.28;34.96;99671.88;4500359;31;34480;-80
2022/03/09 08:40:11;;;;;;;;;;;;;;;7.18;36.74;99684.69;4500129;31;34281;-85
2022/03/09 08:42:39;;;;;;;;;;;;;;;7.75;36.64;99669.41;4500025;31;34431;-80
2022/03/09 08:45:06;;;;;;;;;;;;;;;7.76;36.03;99676.31;4500341;31;33604;-81
2022/03/09 08:47:34;;;;;;;;;;;;;;;8.45;34.81;99670.72;4499100;31;34326;-81
2022/03/09 08:50:02;;;;;;;;;;;;;;;8.12;35.55;99673.13;4499074;31;34349;-80
2022/03/09 08:52:49;;;;;;;;;;;;;;;8.33;34.54;99680.66;4500175;31;34304;-82
2022/03/09 08:55:20;;;;;;;;;;;;;;;9.03;33.47;99668.91;4500047;31;33980;-80
2022/03/09 08:57:47;;;;;;;;;;;;;;;9.35;32.89;99663.69;4500415;31;34302;-81
2022/03/09 09:00:14;;;;;;;;;;;;;;;9.17;33.95;99662.38;4500125;31;34518;-81
2022/03/09 09:02:42;;;;;;;;;;;;;;;9.45;33.53;99663.09;4499946;31;34305;-81
2022/03/09 09:05:10;;;;;;;;;;;;;;;8.11;35.57;99662.78;4500000;31;34036;-80
2022/03/09 09:07:37;;;;;;;;;;;;;;;8.73;34.60;99654.28;4499954;31;33840;-80
2022/03/09 09:10:06;;;;;;;;;;;;;;;8.78;34.47;99650.09;4499941;31;34226;-81
2022/03/09 09:12:33;;;;;;;;;;;;;;;9.01;34.46;99657.63;4498733;31;34279;-85
2022/03/09 09:15:00;;;;;;;;;;;;;;;9.07;34.19;99652.63;4499988;31;33965;-80
2022/03/09 09:17:27;;;;;;;;;;;;;;;10.15;32.11;99656.09;4500074;31;34530;-81
2022/03/09 09:20:06;;;;;;;;;;;;;;;8.87;34.45;99646.06;4499921;31;34723;-81
2022/03/09 09:22:33;;;;;;;;;;;;;;;8.00;36.42;99650.41;4498917;31;33502;-81
2022/03/09 09:25:21;;;;;;;;;;;;;;;8.10;36.37;99641.22;4499888;31;34417;-81
2022/03/09 09:27:49;;;;;;;;;;;;;;;7.83;36.83;99645.53;4499979;31;35160;-80
2022/03/09 09:30:16;;;;;;;;;;;;;;;8.42;35.91;99646.50;4498729;31;33951;-80
2022/03/09 09:33:04;;;;;;;;;;;;;;;8.29;36.08;99643.50;4500081;31;33564;-80
2022/03/09 09:35:31;;;;;;;;;;;;;;;8.93;36.30;99638.44;4500204;31;33766;-81
2022/03/09 09:38:08;;;;;;;;;;;;;;;8.72;36.05;99631.88;4499589;31;34002;-81
2022/03/09 09:40:40;;;;;;;;;;;;;;;9.36;34.94;99632.69;4499243;31;35310;-81
2022/03/09 09:43:09;;;;;;;;;;;;;;;9.63;34.75;99640.25;4499797;31;33623;-80
2022/03/09 09:45:36;;;;;;;;;;;;;;;10.02;34.21;99636.81;4498642;31;35066;-81
2022/03/09 09:48:04;;;;;;;;;;;;;;;9.72;33.88;99639.56;4498487;31;35068;-80
2022/03/09 09:50:31;;;;;;;;;;;;;;;9.29;34.44;99643.72;4498552;31;34734;-80
2022/03/09 09:52:58;;;;;;;;;;;;;;;9.34;34.84;99642.09;4498700;31;33762;-80
2022/03/09 09:55:26;;;;;;;;;;;;;;;9.45;34.18;99644.97;4498205;31;35119;-81
2022/03/09 09:57:54;;;;;;;;;;;;;;;9.37;34.95;99636.13;4499678;31;34978;-81
2022/03/09 10:00:21;;;;;;;;;;;;;;;9.17;35.26;99644.28;4499782;31;34344;-81
2022/03/09 10:02:49;;;;;;;;;;;;;;;9.54;34.74;99646.91;4499470;31;34334;-81
2022/03/09 10:05:17;;;;;;;;;;;;;;;10.29;34.03;99646.06;4499670;31;34535;-80
2022/03/09 10:08:03;;;;;;;;;;;;;;;10.10;34.07;99648.22;4498000;31;34998;-81
2022/03/09 10:10:30;;;;;;;;;;;;;;;9.38;35.01;99637.88;4499891;31;35007;-80
2022/03/09 10:13:13;;;;;;;;;;;;;;;10.35;33.42;99639.31;4498295;31;33953;-80
2022/03/09 10:15:43;;;;;;;;;;;;;;;10.32;33.61;99635.78;4499529;31;33839;-80
2022/03/09 10:18:14;;;;;;;;;;;;;;;10.66;32.56;99622.66;4499596;31;34213;-81
2022/03/09 10:20:42;;;;;;;;;;;;;;;9.93;33.41;99623.69;4499347;31;34916;-80
2022/03/09 10:23:09;;;;;;;;;;;;;;;9.90;33.39;99623.59;4499844;31;32771;-81
2022/03/09 10:25:40;;;;;;;;;;;;;;;9.65;34.60;99630.78;4499904;31;34951;-80
2022/03/09 10:28:11;;;;;;;;;;;;;;;10.34;33.23;99636.66;4498336;31;34086;-81
2022/03/09 10:30:39;;;;;;;;;;;;;;;9.93;34.23;99626.25;4499554;31;34781;-81
2022/03/09 10:33:08;;;;;;;;;;;;;;;10.73;32.95;99609.81;4498122;31;33664;-81
2022/03/09 10:35:40;;;;;;;;;;;;;;;11.29;32.37;99607.34;4499534;31;35025;-81
2022/03/09 10:38:08;;;;;;;;;;;;;;;11.53;31.99;99618.16;4498278;31;33803;-81
2022/03/09 10:40:40;;;;;;;;;;;;;;;10.85;32.96;99590.16;4497881;31;34261;-81
2022/03/09 10:43:17;;;;;;;;;;;;;;;11.51;32.61;99596.47;4499588;31;33070;-81
2022/03/09 10:46:00;;;;;;;;;;;;;;;11.68;32.32;99584.63;4499159;31;34940;-81
2022/03/09 10:48:50;;;;;;;;;;;;;;;11.86;31.77;99585.78;4499461;31;34331;-81
2022/03/09 10:51:24;;;;;;;;;;;;;;;11.78;31.95;99579.56;4497459;31;34053;-80
2022/03/09 10:53:51;;;;;;;;;;;;;;;12.00;31.86;99578.16;4499202;31;33593;-81
2022/03/09 10:56:21;;;;;;;;;;;;;;;11.92;31.88;99570.28;4499118;31;35120;-81
2022/03/09 10:58:48;;;;;;;;;;;;;;;10.95;33.64;99578.25;4499319;31;34493;-84
2022/03/09 11:01:16;;;;;;;;;;;;;;;11.12;33.53;99569.03;4499343;31;35265;-81
2022/03/09 11:03:44;;;;;;;;;;;;;;;11.39;33.66;99570.31;4497841;31;34608;-81
2022/03/09 11:06:14;;;;;;;;;;;;;;;12.02;32.19;99556.56;4499155;31;34286;-81
2022/03/09 11:08:41;;;;;;;;;;;;;;;12.31;31.75;99574.22;4498126;31;33940;-81
2022/03/09 11:11:09;;;;;;;;;;;;;;;11.98;32.26;99559.09;4499098;31;33817;-81
2022/03/09 11:13:36;;;;;;;;;;;;;;;11.48;33.00;99564.38;4498048;31;32911;-81
2022/03/09 11:16:04;;;;;;;;;;;;;;;12.02;32.39;99551.37;4497987;31;33911;-81
2022/03/09 11:18:32;;;;;;;;;;;;;;;12.14;31.78;99555.84;4499036;31;34486;-81
2022/03/09 11:21:01;;;;;;;;;;;;;;;11.67;32.75;99561.25;4498876;31;33963;-80
2022/03/09 11:23:28;;;;;;;;;;;;;;;11.90;32.93;99561.59;4499127;31;33342;-81
2022/03/09 11:25:59;;;;;;;;;;;;;;;11.98;32.38;99557.38;4498929;31;34157;-80
2022/03/09 11:28:29;;;;;;;;;;;;;;;11.99;32.25;99561.72;4499295;31;34524;-81
2022/03/09 11:30:57;;;;;;;;;;;;;;;12.00;32.47;99552.19;4499028;31;33065;-80
2022/03/09 11:33:54;;;;;;;;;;;;;;;12.10;32.34;99530.66;4497801;31;33323;-82
2022/03/09 11:36:22;;;;;;;;;;;;;;;12.58;31.52;99540.78;4488657;31;34243;-81
2022/03/09 11:38:50;;;;;;;;;;;;;;;12.43;32.09;99543.19;4498892;31;34237;-80
2022/03/09 11:41:22;;;;;;;;;;;;;;;12.16;32.19;99552.41;4498875;31;35323;-81
2022/03/09 11:43:50;;;;;;;;;;;;;;;11.84;33.36;99539.00;4498768;31;33686;-81
2022/03/09 11:46:17;;;;;;;;;;;;;;;12.51;32.13;99536.34;4497607;31;34582;-81
2022/03/09 11:48:54;;;;;;;;;;;;;;;12.18;32.12;99536.84;4498763;31;34571;-81
2022/03/09 11:51:22;;;;;;;;;;;;;;;13.25;29.98;99526.66;4498124;31;33746;-80
2022/03/09 11:53:51;;;;;;;;;;;;;;;12.22;32.05;99537.75;4499148;31;34312;-81
2022/03/09 11:56:24;;;;;;;;;;;;;;;11.89;32.19;99524.38;4498869;31;34228;-81
2022/03/09 11:59:12;;;;;;;;;;;;;;;11.52;33.42;99535.06;4498828;31;34509;-81
2022/03/09 12:01:57;;;;;;;;;;;;;;;12.29;31.79;99530.03;4490699;31;34137;-81
2022/03/09 12:04:48;;;;;;;;;;;;;;;12.54;31.14;99520.78;4498722;31;33584;-81
2022/03/09 12:07:38;;;;;;;;;;;;;;;11.55;32.48;99524.69;4497371;31;34171;-81
2022/03/09 12:10:07;;;;;;;;;;;;;;;11.41;33.02;99524.50;4492219;31;35160;-81
2022/03/09 12:12:35;;;;;;;;;;;;;;;13.22;30.58;99517.06;4498614;31;34088;-81
2022/03/09 12:15:02;;;;;;;;;;;;;;;13.53;29.68;99518.19;4498617;31;33513;-81
2022/03/09 12:17:31;;;;;;;;;;;;;;;12.57;31.16;99518.19;4498340;31;34566;-80
2022/03/09 12:20:17;;;;;;;;;;;;;;;12.38;31.94;99511.94;4498228;31;33998;-80
2022/03/09 12:22:57;;;;;;;;;;;;;;;12.63;31.70;99513.06;4498256;31;34491;-81
2022/03/09 12:25:39;;;;;;;;;;;;;;;11.71;32.88;99507.63;4498302;31;34466;-81
2022/03/09 12:28:25;;;;;;;;;;;;;;;12.33;32.05;99520.53;4497402;31;33610;-81
2022/03/09 12:30:53;;;;;;;;;;;;;;;12.33;31.64;99510.16;4498347;31;34291;-81
2022/03/09 12:33:25;;;;;;;;;;;;;;;11.34;33.86;99517.47;4498188;31;35068;-81
2022/03/09 12:35:52;;;;;;;;;;;;;;;12.89;31.45;99515.06;4498336;31;34401;-81
2022/03/09 12:38:41;;;;;;;;;;;;;;;12.25;31.92;99515.25;4498224;31;33921;-80
2022/03/09 12:41:24;;;;;;;;;;;;;;;12.93;30.66;99515.94;4498189;31;35106;-81
2022/03/09 12:43:52;;;;;;;;;;;;;;;12.98;30.75;99512.50;4498194;31;34879;-80
2022/03/09 12:46:20;;;;;;;;;;;;;;;12.95;30.94;99507.28;4497020;31;33568;-81
2022/03/09 12:48:48;;;;;;;;;;;;;;;12.53;31.24;99513.81;4497998;31;34337;-81
2022/03/09 12:51:15;;;;;;;;;;;;;;;13.54;29.66;99504.28;4498038;31;34213;-81
2022/03/09 12:54:02;;;;;;;;;;;;;;;14.14;29.25;99506.34;4498064;31;34296;-81
2022/03/09 12:56:30;;;;;;;;;;;;;;;12.73;30.52;99507.94;4497856;31;33342;-81
2022/03/09 12:59:08;;;;;;;;;;;;;;;12.19;31.23;99509.97;4472997;31;779899;-80
2022/03/09 13:01:35;;;;;;;;;;;;;;;13.28;29.71;99509.31;4497480;31;34219;-81
2022/03/09 13:04:03;;;;;;;;;;;;;;;13.55;29.49;99500.81;4497846;31;34542;-80
2022/03/09 13:06:32;;;;;;;;;;;;;;;12.82;30.14;99502.84;4496475;31;33316;-81